createdAt,value
2018-04-12T00:00:40.537Z,86.30
2018-04-12T00:03:08.199Z,86.30
2018-04-12T00:05:35.854Z,87.20
2018-04-12T00:08:03.514Z,86.50
2018-04-12T00:10:31.125Z,86.50
2018-04-12T00:12:58.798Z,86.60
2018-04-12T00:15:27.221Z,86.60
2018-04-12T00:17:54.849Z,86.70
2018-04-12T00:20:22.514Z,86.70
2018-04-12T00:22:50.138Z,86.80
2018-04-12T00:25:17.937Z,86.80
2018-04-12T00:27:46.218Z,87.00
2018-04-12T00:30:13.882Z,86.90
2018-04-12T00:32:41.529Z,87.20
2018-04-12T00:35:09.178Z,87.20
2018-04-12T00:37:36.849Z,87.30
2018-04-12T00:40:04.508Z,87.40
2018-04-12T00:42:32.889Z,87.70
2018-04-12T00:45:00.515Z,87.40
2018-04-12T00:47:28.122Z,87.50
2018-04-12T00:49:55.791Z,87.30
2018-04-12T00:52:23.461Z,87.30
2018-04-12T00:54:51.868Z,87.10
2018-04-12T00:57:20.289Z,87.10
2018-04-12T00:59:47.913Z,86.90
2018-04-12T01:02:15.625Z,86.90
2018-04-12T01:04:43.272Z,87.00
2018-04-12T01:07:10.883Z,87.10
2018-04-12T01:09:38.534Z,87.10
2018-04-12T01:12:06.172Z,87.20
2018-04-12T01:14:33.820Z,87.20
2018-04-12T01:17:01.494Z,87.10
2018-04-12T01:19:29.111Z,87.00
2018-04-12T01:22:00.370Z,87.00
2018-04-12T01:24:27.995Z,87.00
2018-04-12T01:26:55.649Z,86.90
2018-04-12T01:29:23.274Z,86.90
2018-04-12T01:31:51.693Z,87.00
2018-04-12T01:34:20.118Z,87.10
2018-04-12T01:36:47.732Z,87.10
2018-04-12T01:39:15.371Z,87.10
2018-04-12T01:41:42.998Z,87.10
2018-04-12T01:44:10.625Z,87.20
2018-04-12T01:46:39.062Z,87.20
2018-04-12T01:49:06.656Z,87.30
2018-04-12T01:51:34.307Z,87.30
2018-04-12T01:54:02.745Z,87.00
2018-04-12T01:56:30.366Z,87.00
2018-04-12T01:58:58.033Z,87.00
2018-04-12T02:01:25.659Z,87.00
2018-04-12T02:03:53.281Z,86.90
2018-04-12T02:06:20.905Z,86.90
2018-04-12T02:08:48.505Z,86.90
2018-04-12T02:11:16.163Z,86.80
2018-04-12T02:13:43.812Z,86.50
2018-04-12T02:16:12.286Z,85.10
2018-04-12T02:18:39.992Z,85.10
2018-04-12T02:21:07.633Z,84.90
2018-04-12T02:23:35.285Z,84.90
2018-04-12T02:26:02.934Z,84.50
2018-04-12T02:28:30.567Z,84.30
2018-04-12T02:30:58.218Z,83.90
2018-04-12T02:33:26.618Z,83.80
2018-04-12T02:35:54.274Z,83.70
2018-04-12T02:38:21.905Z,83.70
2018-04-12T02:40:50.309Z,83.30
2018-04-12T02:43:18.737Z,83.30
2018-04-12T02:45:46.390Z,83.20
2018-04-12T02:48:14.033Z,83.20
2018-04-12T02:50:41.713Z,83.30
2018-04-12T02:53:10.082Z,83.40
2018-04-12T02:55:38.530Z,83.40
2018-04-12T02:58:06.929Z,83.50
2018-04-12T03:00:34.592Z,83.40
2018-04-12T03:03:02.213Z,83.60
2018-04-12T03:05:29.862Z,83.80
2018-04-12T03:07:57.473Z,85.10
2018-04-12T03:10:25.091Z,85.30
2018-04-12T03:12:52.738Z,85.50
2018-04-12T03:15:20.373Z,85.40
2018-04-12T03:17:48.030Z,85.50
2018-04-12T03:20:15.683Z,85.90
2018-04-12T03:22:44.081Z,85.70
2018-04-12T03:25:12.497Z,85.90
2018-04-12T03:27:40.899Z,86.10
2018-04-12T03:30:09.317Z,86.10
2018-04-12T03:32:36.968Z,86.10
2018-04-12T03:35:04.633Z,86.10
2018-04-12T03:37:32.278Z,86.10
2018-04-12T03:40:00.690Z,86.10
2018-04-12T03:42:28.326Z,86.10
2018-04-12T03:44:55.962Z,86.10
2018-04-12T03:47:24.265Z,86.10
2018-04-12T03:49:51.913Z,86.10
2018-04-12T03:52:19.582Z,86.10
2018-04-12T03:54:47.242Z,86.10
2018-04-12T03:57:14.914Z,86.10
2018-04-12T03:59:42.537Z,86.10
2018-04-12T04:02:10.229Z,86.10
2018-04-12T04:04:37.846Z,86.10
2018-04-12T04:07:05.540Z,86.00
2018-04-12T04:09:33.209Z,86.10
2018-04-12T04:12:00.877Z,86.10
2018-04-12T04:17:44.177Z,86.00
2018-04-12T04:20:23.572Z,86.10
2018-04-12T04:22:51.137Z,86.10
2018-04-12T04:25:18.729Z,86.20
2018-04-12T04:27:46.334Z,86.20
2018-04-12T04:30:13.905Z,86.20
2018-04-12T04:32:41.497Z,86.20
2018-04-12T04:35:09.093Z,86.10
2018-04-12T04:37:36.709Z,86.00
2018-04-12T04:40:04.370Z,86.00
2018-04-12T04:42:31.998Z,85.90
2018-04-12T04:44:59.691Z,85.90
2018-04-12T04:47:27.329Z,85.90
2018-04-12T04:49:54.953Z,86.00
2018-04-12T04:52:22.638Z,86.00
2018-04-12T04:54:50.281Z,86.00
2018-04-12T04:57:17.934Z,85.90
2018-04-12T04:59:45.564Z,86.00
2018-04-12T05:02:13.236Z,86.10
2018-04-12T05:05:01.257Z,86.20
2018-04-12T05:07:28.897Z,86.20
2018-04-12T05:09:56.573Z,86.30
2018-04-12T05:12:24.223Z,86.30
2018-04-12T05:14:51.900Z,86.20
2018-04-12T05:17:19.585Z,86.20
2018-04-12T05:19:47.539Z,86.90
2018-04-12T05:22:15.311Z,86.10
2018-04-12T05:24:42.896Z,86.90
2018-04-12T05:27:10.751Z,86.30
2018-04-12T05:29:38.424Z,86.30
2018-04-12T05:32:06.082Z,86.30
2018-04-12T05:34:33.770Z,86.50
2018-04-12T05:37:01.414Z,86.30
2018-04-12T05:39:29.084Z,86.10
2018-04-12T05:41:56.723Z,86.20
2018-04-12T05:44:24.370Z,85.80
2018-04-12T05:46:52.026Z,85.60
2018-04-12T05:49:20.422Z,84.30
2018-04-12T05:51:48.073Z,84.20
2018-04-12T05:54:15.857Z,84.60
2018-04-12T05:56:43.484Z,83.70
2018-04-12T05:59:11.957Z,83.10
2018-04-12T06:01:39.576Z,83.00
2018-04-12T06:04:07.270Z,82.80
2018-04-12T06:06:34.909Z,82.50
2018-04-12T06:09:02.588Z,82.10
2018-04-12T06:11:30.297Z,82.80
2018-04-12T06:13:57.933Z,81.50
2018-04-12T06:16:26.356Z,80.70
2018-04-12T06:18:53.965Z,80.70
2018-04-12T06:21:22.132Z,80.60
2018-04-12T06:23:49.757Z,80.70
2018-04-12T06:26:17.397Z,80.40
2018-04-12T06:28:45.038Z,80.20
2018-04-12T06:31:12.689Z,80.20
2018-04-12T06:33:40.373Z,79.30
2018-04-12T06:36:08.025Z,79.40
2018-04-12T06:38:35.662Z,79.50
2018-04-12T06:41:03.318Z,80.30
2018-04-12T06:43:31.712Z,78.50
2018-04-12T06:45:59.367Z,78.40
2018-04-12T06:48:27.034Z,78.00
2018-04-12T06:50:54.876Z,78.10
2018-04-12T06:53:22.517Z,77.50
2018-04-12T06:55:51.193Z,77.10
2018-04-12T06:58:18.865Z,76.30
2018-04-12T07:00:47.286Z,74.90
2018-04-12T07:03:14.921Z,74.90
2018-04-12T07:05:42.582Z,74.30
2018-04-12T07:08:10.194Z,73.70
2018-04-12T07:10:38.693Z,72.70
2018-04-12T07:13:06.377Z,71.90
2018-04-12T07:15:33.997Z,71.30
2018-04-12T07:18:01.650Z,70.60
2018-04-12T07:20:29.314Z,70.10
2018-04-12T07:22:56.978Z,69.70
2018-04-12T07:25:25.401Z,68.20
2018-04-12T07:27:53.043Z,68.20
2018-04-12T07:30:20.722Z,67.40
2018-04-12T07:32:50.087Z,66.30
2018-04-12T07:35:17.770Z,65.10
2018-04-12T07:37:46.217Z,64.20
2018-04-12T07:40:13.881Z,64.20
2018-04-12T07:42:41.541Z,63.60
2018-04-12T07:45:10.252Z,62.80
2018-04-12T07:47:38.738Z,62.10
2018-04-12T07:50:06.406Z,62.00
2018-04-12T07:52:34.578Z,61.70
2018-04-12T07:55:09.737Z,60.20
2018-04-12T07:57:37.935Z,61.20
2018-04-12T08:00:05.709Z,60.00
2018-04-12T08:02:34.137Z,59.40
2018-04-12T08:05:02.537Z,58.90
2018-04-12T08:07:30.237Z,58.90
2018-04-12T08:09:57.873Z,58.40
2018-04-12T08:12:25.592Z,57.80
2018-04-12T08:14:54.017Z,56.20
2018-04-12T08:17:21.698Z,56.20
2018-04-12T08:19:49.402Z,55.60
2018-04-12T08:22:17.042Z,54.80
2018-04-12T08:24:44.667Z,54.20
2018-04-12T08:27:12.382Z,53.00
2018-04-12T08:29:40.010Z,52.50
2018-04-12T08:32:08.401Z,52.20
2018-04-12T08:34:36.103Z,51.40
2018-04-12T08:37:03.730Z,51.10
2018-04-12T08:39:31.373Z,50.00
2018-04-12T08:41:59.029Z,49.50
2018-04-12T08:44:26.645Z,49.10
2018-04-12T08:46:59.299Z,49.00
2018-04-12T08:49:26.982Z,48.90
2018-04-12T08:51:54.772Z,48.40
2018-04-12T08:54:22.397Z,47.40
2018-04-12T08:56:50.025Z,47.40
2018-04-12T08:59:17.709Z,47.20
2018-04-12T09:01:46.186Z,46.30
2018-04-12T09:04:13.827Z,46.30
2018-04-12T09:06:41.496Z,45.70
2018-04-12T09:09:09.157Z,44.70
2018-04-12T09:11:36.798Z,44.30
2018-04-12T09:14:04.507Z,44.20
2018-04-12T09:16:32.113Z,44.40
2018-04-12T09:19:00.038Z,44.20
2018-04-12T09:21:28.440Z,43.00
2018-04-12T09:23:56.892Z,42.70
2018-04-12T09:26:24.553Z,42.60
2018-04-12T09:28:52.159Z,42.20
2018-04-12T09:31:19.821Z,41.80
2018-04-12T09:33:47.521Z,41.10
2018-04-12T09:36:15.485Z,40.80
2018-04-12T09:38:43.333Z,41.00
2018-04-12T09:41:11.244Z,41.10
2018-04-12T09:43:39.573Z,41.00
2018-04-12T09:52:07.670Z,40.90
2018-04-12T09:54:35.437Z,40.80
2018-04-12T09:57:03.291Z,40.20
2018-04-12T09:59:31.807Z,39.60
2018-04-12T10:02:01.534Z,39.20
2018-04-12T10:04:29.256Z,39.20
2018-04-12T10:07:02.691Z,39.00
2018-04-12T10:09:30.633Z,38.50
2018-04-12T10:12:08.844Z,37.90
2018-04-12T10:20:22.737Z,36.00
2018-04-12T10:22:50.538Z,35.60
2018-04-12T10:25:19.231Z,35.80
2018-04-12T10:27:46.980Z,35.40
2018-04-12T10:30:14.747Z,35.60
2018-04-12T10:32:42.380Z,35.60
2018-04-12T10:35:10.041Z,35.50
2018-04-12T10:37:37.669Z,35.50
2018-04-12T10:40:06.106Z,35.20
2018-04-12T10:42:33.716Z,35.90
2018-04-12T10:45:01.466Z,34.60
2018-04-12T10:47:30.418Z,34.60
2018-04-12T10:49:58.074Z,34.60
2018-04-12T10:52:26.482Z,35.50
2018-04-12T10:54:54.245Z,35.40
2018-04-12T10:57:21.953Z,35.30
2018-04-12T10:59:49.680Z,35.50
2018-04-12T11:02:17.324Z,36.00
2018-04-12T11:04:45.752Z,35.80
2018-04-12T11:07:13.402Z,35.80
2018-04-12T11:09:41.891Z,35.80
2018-04-12T11:12:09.566Z,35.00
2018-04-12T11:14:37.230Z,34.80
2018-04-12T11:17:04.922Z,34.70
2018-04-12T11:19:32.570Z,34.70
2018-04-12T11:22:01.049Z,34.60
2018-04-12T11:24:28.733Z,34.40
2018-04-12T11:26:56.361Z,34.50
2018-04-12T11:29:24.857Z,33.80
2018-04-12T11:31:53.250Z,33.60
2018-04-12T11:34:20.908Z,33.70
2018-04-12T11:36:48.578Z,33.80
2018-04-12T11:39:16.217Z,33.80
2018-04-12T11:41:44.659Z,33.80
2018-04-12T11:44:12.302Z,33.80
2018-04-12T11:46:39.966Z,33.90
2018-04-12T11:49:08.421Z,33.90
2018-04-12T11:51:36.833Z,33.90
2018-04-12T11:54:04.497Z,33.80
2018-04-12T11:56:32.950Z,34.20
2018-04-12T11:59:00.626Z,34.10
2018-04-12T12:01:28.271Z,34.30
2018-04-12T12:03:56.681Z,34.50
2018-04-12T12:06:25.141Z,34.40
2018-04-12T12:08:52.745Z,34.40
2018-04-12T12:11:20.389Z,34.50
2018-04-12T12:13:48.066Z,34.90
2018-04-12T12:16:15.685Z,35.70
2018-04-12T12:18:43.369Z,36.40
2018-04-12T12:21:11.006Z,36.60
2018-04-12T12:23:39.504Z,36.70
2018-04-12T12:26:07.166Z,36.70
2018-04-12T12:28:34.831Z,36.60
2018-04-12T12:31:02.481Z,36.70
2018-04-12T12:33:30.877Z,36.90
2018-04-12T12:35:59.344Z,36.90
2018-04-12T12:38:27.014Z,36.90
2018-04-12T12:40:54.666Z,36.70
2018-04-12T12:43:22.357Z,36.80
2018-04-12T12:45:50.004Z,36.70
2018-04-12T12:48:17.661Z,36.70
2018-04-12T12:50:45.332Z,36.80
2018-04-12T12:53:12.974Z,37.00
2018-04-12T12:55:40.613Z,37.30
2018-04-12T12:58:08.229Z,36.80
2018-04-12T13:00:35.866Z,36.80
2018-04-12T13:03:03.538Z,36.70
2018-04-12T13:05:31.970Z,37.00
2018-04-12T13:07:59.630Z,37.00
2018-04-12T13:10:28.020Z,36.70
2018-04-12T13:12:55.721Z,36.70
2018-04-12T13:15:23.373Z,36.70
2018-04-12T13:17:51.001Z,36.60
2018-04-12T13:20:19.390Z,35.70
2018-04-12T13:22:47.034Z,35.70
2018-04-12T13:25:14.714Z,35.50
2018-04-12T13:27:42.419Z,35.50
2018-04-12T13:30:10.066Z,35.40
2018-04-12T13:32:37.750Z,35.10
2018-04-12T13:35:06.154Z,34.30
2018-04-12T13:37:33.846Z,34.40
2018-04-12T13:40:01.520Z,34.50
2018-04-12T13:42:29.953Z,35.60
2018-04-12T13:44:57.606Z,35.40
2018-04-12T13:47:26.017Z,36.00
2018-04-12T13:49:54.439Z,35.80
2018-04-12T13:52:23.048Z,35.70
2018-04-12T13:54:50.763Z,35.10
2018-04-12T13:57:19.118Z,34.70
2018-04-12T13:59:47.545Z,34.50
2018-04-12T14:02:15.185Z,34.50
2018-04-12T14:04:42.837Z,34.40
2018-04-12T14:07:10.501Z,34.20
2018-04-12T14:09:38.923Z,34.60
2018-04-12T14:12:06.581Z,34.60
2018-04-12T14:14:34.187Z,34.10
2018-04-12T14:17:02.650Z,33.50
2018-04-12T14:19:30.314Z,33.50
2018-04-12T14:21:57.941Z,33.50
2018-04-12T14:24:26.414Z,32.90
2018-04-12T14:26:54.134Z,32.90
2018-04-12T14:29:23.274Z,32.60
2018-04-12T14:31:50.993Z,32.90
2018-04-12T14:34:19.384Z,33.90
2018-04-12T14:36:47.069Z,33.70
2018-04-12T14:39:14.717Z,33.70
2018-04-12T14:41:42.596Z,33.30
2018-04-12T14:44:11.056Z,33.60
2018-04-12T14:46:38.681Z,33.50
2018-04-12T14:49:06.344Z,33.90
2018-04-12T14:51:34.746Z,34.00
2018-04-12T14:54:02.414Z,34.00
2018-04-12T14:56:30.835Z,34.80
2018-04-12T14:58:58.779Z,34.80
2018-04-12T15:01:26.502Z,35.20
2018-04-12T15:03:54.129Z,35.50
2018-04-12T15:06:22.082Z,35.10
2018-04-12T15:08:49.805Z,35.20
2018-04-12T15:11:17.724Z,35.70
2018-04-12T15:13:46.339Z,37.60
2018-04-12T15:16:14.777Z,37.80
2018-04-12T15:18:43.215Z,37.90
2018-04-12T15:21:11.653Z,37.30
2018-04-12T15:23:39.293Z,37.20
2018-04-12T15:26:06.950Z,36.70
2018-04-12T15:28:34.637Z,36.20
2018-04-12T15:31:02.375Z,36.90
2018-04-12T15:33:30.080Z,36.70
2018-04-12T15:35:57.745Z,37.40
2018-04-12T15:38:32.151Z,37.80
2018-04-12T15:49:57.849Z,38.90
2018-04-12T15:52:25.532Z,38.80
2018-04-12T15:54:53.182Z,39.40
2018-04-12T15:57:20.858Z,40.10
2018-04-12T15:59:48.526Z,40.60
2018-04-12T16:02:16.205Z,40.70
2018-04-12T16:04:43.854Z,40.40
2018-04-12T16:13:09.905Z,38.60
2018-04-12T16:15:37.570Z,38.80
2018-04-12T16:18:05.224Z,38.60
2018-04-12T16:20:33.146Z,38.70
2018-04-12T16:23:00.790Z,38.60
2018-04-12T16:25:28.458Z,38.70
2018-04-12T16:27:56.891Z,39.00
2018-04-12T16:30:24.527Z,39.00
2018-04-12T16:32:52.190Z,39.10
2018-04-12T16:35:19.826Z,39.30
2018-04-12T16:37:47.486Z,39.50
2018-04-12T16:40:15.159Z,39.50
2018-04-12T16:54:16.132Z,41.80
2018-04-12T16:56:43.825Z,42.70
2018-04-12T16:59:11.508Z,43.90
2018-04-12T17:01:39.543Z,44.70
2018-04-12T17:04:07.182Z,45.40
2018-04-12T17:06:35.624Z,46.30
2018-04-12T17:09:03.379Z,46.30
2018-04-12T17:11:32.813Z,47.40
2018-04-12T17:14:00.497Z,47.40
2018-04-12T17:16:28.701Z,48.00
2018-04-12T17:18:56.362Z,48.50
2018-04-12T17:21:24.044Z,49.00
2018-04-12T17:23:51.692Z,49.40
2018-04-12T17:26:32.178Z,49.70
2018-04-12T17:28:59.809Z,49.80
2018-04-12T17:31:27.523Z,50.10
2018-04-12T17:33:55.177Z,50.30
2018-04-12T17:36:22.865Z,50.30
2018-04-12T17:38:50.482Z,50.60
2018-04-12T17:41:18.115Z,50.80
2018-04-12T17:49:44.604Z,52.10
2018-04-12T17:52:12.262Z,52.00
2018-04-12T17:54:39.919Z,52.20
2018-04-12T17:57:07.590Z,52.50
2018-04-12T17:59:35.217Z,52.90
2018-04-12T18:02:03.697Z,53.30
2018-04-12T18:04:31.369Z,53.30
2018-04-12T18:06:59.769Z,53.20
2018-04-12T18:09:27.427Z,53.60
2018-04-12T18:12:20.641Z,53.80
2018-04-12T18:14:48.281Z,54.00
2018-04-12T18:17:18.206Z,54.60
2018-04-12T18:19:46.025Z,54.50
2018-04-12T18:22:14.446Z,55.10
2018-04-12T18:24:42.086Z,55.00
2018-04-12T18:30:13.837Z,56.40
2018-04-12T18:32:42.445Z,56.00
2018-04-12T18:35:11.027Z,55.90
2018-04-12T18:37:38.829Z,56.00
2018-04-12T18:40:06.598Z,56.20
2018-04-12T18:42:34.528Z,56.40
2018-04-12T18:45:03.040Z,57.30
2018-04-12T18:47:30.926Z,57.20
2018-04-12T18:52:55.682Z,57.90
2018-04-12T18:55:23.666Z,58.00
2018-04-12T18:57:51.456Z,58.10
2018-04-12T19:00:19.277Z,58.50
2018-04-12T19:02:47.212Z,58.60
2018-04-12T19:05:15.262Z,59.00
2018-04-12T19:07:43.052Z,59.90
2018-04-12T19:10:11.172Z,59.60
2018-04-12T19:12:39.058Z,59.90
2018-04-12T19:15:06.806Z,60.00
2018-04-12T19:17:35.070Z,60.50
2018-04-12T19:20:03.054Z,60.70
2018-04-12T19:22:31.156Z,60.60
2018-04-12T19:24:59.144Z,61.50
2018-04-12T19:27:26.889Z,61.90
2018-04-12T19:30:02.073Z,62.10
2018-04-12T19:32:30.049Z,62.40
2018-04-12T19:34:58.153Z,62.50
2018-04-12T19:37:25.951Z,62.80
2018-04-12T19:39:53.778Z,63.10
2018-04-12T19:42:21.627Z,63.30
2018-04-12T19:44:49.405Z,63.50
2018-04-12T19:47:17.225Z,63.70
2018-04-12T19:49:45.367Z,63.90
2018-04-12T19:52:13.976Z,63.60
2018-04-12T19:54:42.412Z,63.60
2018-04-12T19:57:10.647Z,63.50
2018-04-12T19:59:38.479Z,63.60
2018-04-12T20:02:07.975Z,64.10
2018-04-12T20:04:36.853Z,64.30
2018-04-12T20:07:04.768Z,64.40
2018-04-12T20:09:32.527Z,64.80
2018-04-12T20:12:01.016Z,65.40
2018-04-12T20:14:28.767Z,65.40
2018-04-12T20:16:56.975Z,66.60
2018-04-12T20:19:25.364Z,66.20
2018-04-12T20:21:53.364Z,66.00
2018-04-12T20:24:21.226Z,65.80
2018-04-12T20:26:48.899Z,65.70
2018-04-12T20:29:17.460Z,65.40
2018-04-12T20:31:45.125Z,65.40
2018-04-12T20:34:12.893Z,65.50
2018-04-12T20:36:40.713Z,65.40
2018-04-12T20:39:08.552Z,65.10
2018-04-12T20:41:36.219Z,65.10
2018-04-12T20:44:05.099Z,64.80
2018-04-12T20:46:32.958Z,64.90
2018-04-12T20:49:01.245Z,65.10
2018-04-12T20:51:28.950Z,65.20
2018-04-12T20:53:56.620Z,65.10
2018-04-12T20:56:24.415Z,65.20
2018-04-12T20:58:52.791Z,65.40
2018-04-12T21:01:21.293Z,65.30
2018-04-12T21:03:49.699Z,65.30
2018-04-12T21:06:17.345Z,65.30
2018-04-12T21:08:45.001Z,65.30
2018-04-12T21:11:13.430Z,65.10
2018-04-12T21:13:41.052Z,65.10
2018-04-12T21:16:20.444Z,65.10
2018-04-12T21:18:48.046Z,65.00
2018-04-12T21:21:16.481Z,65.10
2018-04-12T21:23:44.125Z,65.10
2018-04-12T21:26:11.818Z,65.20
2018-04-12T21:28:39.733Z,65.50
2018-04-12T21:31:08.124Z,65.20
2018-04-12T21:33:35.719Z,65.20
2018-04-12T21:36:04.133Z,64.80
2018-04-12T21:38:32.505Z,65.00
2018-04-12T21:41:00.238Z,65.00
2018-04-12T21:43:27.941Z,65.40
2018-04-12T21:45:55.560Z,65.80
2018-04-12T21:48:23.253Z,66.20
2018-04-12T21:50:50.898Z,66.50
2018-04-12T21:53:18.584Z,66.90
2018-04-12T21:55:46.705Z,67.30
2018-04-12T21:58:14.339Z,67.80
2018-04-12T22:00:42.036Z,68.20
2018-04-12T22:03:09.719Z,68.40
2018-04-12T22:05:37.374Z,68.90
2018-04-12T22:08:05.038Z,69.30
2018-04-12T22:10:32.697Z,69.30
2018-04-12T22:13:00.448Z,69.60
2018-04-12T22:15:28.046Z,70.10
2018-04-12T22:17:55.700Z,70.30
2018-04-12T22:20:23.335Z,70.60
2018-04-12T22:22:51.111Z,70.70
2018-04-12T22:25:18.813Z,70.90
2018-04-12T22:27:46.438Z,71.10
2018-04-12T22:30:14.120Z,71.30
2018-04-12T22:32:41.766Z,71.40
2018-04-12T22:35:09.439Z,71.60
2018-04-12T22:37:37.090Z,71.90
2018-04-12T22:40:04.713Z,72.10
2018-04-12T22:42:32.409Z,72.30
2018-04-12T22:45:00.048Z,72.30
2018-04-12T22:47:27.710Z,72.20
2018-04-12T22:49:55.362Z,72.40
2018-04-12T22:52:23.777Z,72.90
2018-04-12T22:54:51.453Z,72.80
2018-04-12T22:57:19.871Z,73.20
2018-04-12T22:59:47.543Z,73.20
2018-04-12T23:02:15.986Z,73.50
2018-04-12T23:04:43.607Z,73.50
2018-04-12T23:07:11.270Z,73.60
2018-04-12T23:09:38.918Z,73.80
2018-04-12T23:12:06.629Z,73.80
2018-04-12T23:14:34.281Z,73.80
2018-04-12T23:17:02.668Z,75.00
2018-04-12T23:19:30.328Z,74.20
2018-04-12T23:21:57.968Z,74.40
2018-04-12T23:24:26.380Z,74.60
2018-04-12T23:26:54.806Z,74.70
2018-04-12T23:29:22.465Z,74.70
2018-04-12T23:31:50.917Z,75.00
2018-04-12T23:34:18.526Z,74.90
2018-04-12T23:36:46.209Z,75.10
2018-04-12T23:39:13.883Z,75.20
2018-04-12T23:41:41.517Z,75.30
2018-04-12T23:44:09.912Z,75.50
2018-04-12T23:46:38.290Z,76.20
2018-04-12T23:49:05.977Z,75.50
2018-04-12T23:51:33.647Z,75.40
2018-04-12T23:54:01.295Z,75.50
2018-04-12T23:56:28.921Z,75.60
2018-04-12T23:58:56.546Z,75.70
